Time;durP1;ratioP1;P1;durP2;ratioP2;P2;SDS_P1;SDS_P2;PMS_P1;PMS_P2;Temp;Humidity;BMP_temperature;BMP_pressure;BME280_temperature;BME280_humidity;BME280_pressure;Samples;Min_cycle;Max_cycle;Signal;HPM_P1;HPM_P2
2022/12/15 00:40:11;;;;;;;19.60;11.77;;;-1.30;99.90;;;;;;5014544;28;20537;-74
2022/12/15 00:42:37;;;;;;;20.23;13.15;;;-1.40;99.90;;;;;;5031633;28;20800;-74
2022/12/15 00:45:03;;;;;;;14.90;11.40;;;-1.40;99.90;;;;;;4998681;28;20189;-74
2022/12/15 00:47:31;;;;;;;17.25;11.93;;;-1.40;99.90;;;;;;5031481;28;20212;-74
2022/12/15 01:20:40;;;;;;;14.90;11.25;;;-1.60;99.90;;;;;;5013828;28;20289;-75
2022/12/15 01:22:59;;;;;;;19.73;11.18;;;-1.60;99.90;;;;;;5028428;28;20213;-75
2022/12/15 01:25:26;;;;;;;16.90;11.67;;;-1.60;99.90;;;;;;5031795;28;20208;-75
2022/12/15 01:27:52;;;;;;;16.75;12.32;;;-1.60;99.90;;;;;;5030820;28;20208;-75
2022/12/15 01:30:21;;;;;;;17.67;12.60;;;-1.60;99.90;;;;;;5031126;28;20161;-75
2022/12/15 01:32:48;;;;;;;13.80;10.52;;;-1.60;99.90;;;;;;4997909;28;20572;-75
2022/12/15 01:35:14;;;;;;;15.70;11.77;;;-1.60;99.90;;;;;;5030400;28;20300;-75
2022/12/15 01:37:40;;;;;;;19.00;12.50;;;-1.60;99.90;;;;;;5030652;28;20166;-75
2022/12/15 01:42:52;;;;;;;16.38;11.30;;;-1.60;99.90;;;;;;5013967;28;20231;-75
2022/12/15 01:45:29;;;;;;;21.50;11.43;;;-1.60;99.90;;;;;;5029889;28;20196;-75
2022/12/15 01:47:56;;;;;;;17.77;11.73;;;-1.60;99.90;;;;;;4997300;28;20170;-75
2022/12/15 01:50:24;;;;;;;20.02;11.85;;;-1.60;99.90;;;;;;5014709;28;20598;-75
2022/12/15 01:52:51;;;;;;;18.67;11.38;;;-1.60;99.90;;;;;;5030929;28;20656;-76
2022/12/15 01:55:19;;;;;;;18.15;10.90;;;-1.60;99.90;;;;;;5013790;28;20294;-75
2022/12/15 01:57:47;;;;;;;14.98;10.52;;;-1.70;99.90;;;;;;5029871;28;20220;-75
2022/12/15 02:00:13;;;;;;;16.15;11.70;;;-1.70;99.90;;;;;;5029536;28;20232;-76
2022/12/15 02:02:40;;;;;;;21.63;12.30;;;-1.70;99.90;;;;;;5029417;28;20260;-75
2022/12/15 02:05:07;;;;;;;15.32;11.38;;;-1.70;99.90;;;;;;5020440;28;20262;-75
2022/12/15 02:07:33;;;;;;;18.27;12.55;;;-1.70;99.90;;;;;;5003695;28;20174;-76
2022/12/15 02:10:02;;;;;;;18.10;11.50;;;-1.70;99.90;;;;;;5010183;28;20174;-75
2022/12/15 02:12:40;;;;;;;19.67;13.25;;;-1.80;99.90;;;;;;5011025;28;20210;-76
2022/12/15 02:15:19;;;;;;;16.17;11.05;;;-1.80;99.90;;;;;;5010259;28;20278;-75
2022/12/15 02:18:13;;;;;;;14.60;10.90;;;-1.80;99.90;;;;;;4993962;28;20178;-75
2022/12/15 02:20:59;;;;;;;16.83;11.70;;;-1.90;99.90;;;;;;5011249;28;20167;-75
2022/12/15 02:23:43;;;;;;;17.80;12.52;;;-1.80;99.90;;;;;;4992941;28;20652;-75
2022/12/15 02:26:29;;;;;;;16.73;12.00;;;-1.90;99.90;;;;;;4977381;28;20181;-75
2022/12/15 02:28:55;;;;;;;16.33;11.70;;;-1.90;99.90;;;;;;4979381;28;20535;-75
2022/12/15 02:31:48;;;;;;;19.00;12.17;;;-1.90;99.90;;;;;;5010531;28;20233;-75
2022/12/15 02:34:30;;;;;;;18.20;12.50;;;-1.90;99.90;;;;;;5011067;28;20205;-75
2022/12/15 02:37:06;;;;;;;24.17;13.00;;;-1.90;99.90;;;;;;5009685;28;20229;-75
2022/12/15 02:43:20;;;;;;;15.60;11.02;;;-2.00;99.90;;;;;;5027894;28;20200;-75
2022/12/15 02:46:00;;;;;;;22.03;12.30;;;-2.00;99.90;;;;;;5030176;28;20576;-75
2022/12/15 02:48:36;;;;;;;15.57;11.93;;;-2.00;99.90;;;;;;5030603;28;20740;-75
2022/12/15 02:51:26;;;;;;;18.92;11.93;;;-2.00;99.90;;;;;;4995614;28;20174;-75
2022/12/15 02:54:13;;;;;;;18.10;12.57;;;-2.00;99.90;;;;;;5012679;28;20177;-75
2022/12/15 02:56:51;;;;;;;14.90;11.98;;;-2.00;99.90;;;;;;5012577;28;20259;-79
2022/12/15 02:59:35;;;;;;;17.25;11.35;;;-2.00;99.90;;;;;;5029310;28;20554;-79
2022/12/15 03:02:05;;;;;;;22.98;13.02;;;-2.00;99.90;;;;;;4995481;28;20239;-79
2022/12/15 03:04:32;;;;;;;22.10;13.85;;;-2.10;99.90;;;;;;5012571;28;20186;-79
2022/12/15 03:07:03;;;;;;;19.58;14.02;;;-2.10;99.90;;;;;;5018317;28;20189;-79
2022/12/15 03:09:32;;;;;;;18.52;14.00;;;-2.10;99.90;;;;;;5012063;28;20635;-79
2022/12/15 03:11:59;;;;;;;22.40;15.25;;;-2.10;99.90;;;;;;5011783;28;20236;-79
2022/12/15 03:14:25;;;;;;;20.40;13.13;;;-2.10;99.90;;;;;;4995573;28;20229;-78
2022/12/15 03:16:51;;;;;;;19.37;13.87;;;-2.10;99.90;;;;;;5012438;28;20255;-78
2022/12/15 03:19:18;;;;;;;19.02;12.48;;;-2.10;99.90;;;;;;5029681;28;21033;-78
2022/12/15 03:21:43;;;;;;;19.70;13.57;;;-2.10;99.90;;;;;;5011327;28;20205;-75
2022/12/15 03:24:09;;;;;;;16.53;12.83;;;-2.00;99.90;;;;;;5028062;28;20706;-75
2022/12/15 03:26:35;;;;;;;16.50;11.93;;;-2.10;99.90;;;;;;5011738;28;20182;-74
2022/12/15 03:29:00;;;;;;;19.43;13.03;;;-2.00;99.90;;;;;;5011807;28;20181;-75
2022/12/15 03:31:26;;;;;;;22.70;14.68;;;-2.00;99.90;;;;;;4994370;28;20272;-75
2022/12/15 03:33:52;;;;;;;23.13;13.43;;;-2.00;99.90;;;;;;5029523;28;20309;-75
2022/12/15 03:36:18;;;;;;;18.65;13.02;;;-2.00;99.90;;;;;;5019198;28;20714;-75
2022/12/15 03:38:44;;;;;;;20.37;14.83;;;-2.00;99.90;;;;;;5018024;28;20201;-75
2022/12/15 03:41:12;;;;;;;17.75;12.30;;;-2.10;99.90;;;;;;4989728;28;20181;-74
2022/12/15 03:43:38;;;;;;;21.40;13.33;;;-2.10;99.90;;;;;;5036420;28;20834;-74
2022/12/15 03:46:04;;;;;;;19.90;14.60;;;-2.10;99.90;;;;;;5049129;28;20185;-75
2022/12/15 03:48:29;;;;;;;19.27;12.60;;;-2.10;99.90;;;;;;5048026;28;20173;-75
2022/12/15 03:50:55;;;;;;;17.47;12.53;;;-2.10;99.90;;;;;;5047372;28;21055;-74
2022/12/15 03:53:21;;;;;;;19.33;12.77;;;-2.10;99.90;;;;;;5030684;28;20176;-74
2022/12/15 03:55:47;;;;;;;17.83;13.00;;;-2.10;99.90;;;;;;5014542;28;20197;-76
2022/12/15 03:58:12;;;;;;;14.37;11.43;;;-2.10;99.90;;;;;;5030836;28;21192;-74
2022/12/15 04:00:38;;;;;;;15.80;12.53;;;-2.00;99.90;;;;;;5030855;28;20272;-74
2022/12/15 04:03:04;;;;;;;14.33;10.50;;;-2.10;99.90;;;;;;5046989;28;20213;-75
2022/12/15 04:05:32;;;;;;;18.40;12.10;;;-2.00;99.90;;;;;;5031303;28;20739;-74
2022/12/15 04:07:59;;;;;;;21.30;12.77;;;-2.10;99.90;;;;;;5031026;28;20204;-74
2022/12/15 04:10:27;;;;;;;17.27;11.85;;;-2.10;99.90;;;;;;5013642;28;20173;-75
2022/12/15 04:13:05;;;;;;;21.98;13.15;;;-2.10;99.90;;;;;;5030750;28;20207;-75
2022/12/15 04:15:31;;;;;;;17.70;12.80;;;-2.20;99.90;;;;;;5030610;28;20196;-75
2022/12/15 04:17:57;;;;;;;17.65;13.45;;;-2.20;99.90;;;;;;5048832;28;20171;-74
2022/12/15 04:20:23;;;;;;;20.20;12.60;;;-2.20;99.90;;;;;;5033687;28;20196;-74
2022/12/15 04:22:49;;;;;;;21.90;11.95;;;-2.20;99.90;;;;;;5031439;28;20196;-75
2022/12/15 05:31:51;;;;;;;17.65;13.63;;;-2.50;99.90;;;;;;5032996;28;20177;-75
2022/12/15 05:34:19;;;;;;;20.23;13.50;;;-2.60;99.90;;;;;;5033958;28;20196;-75
2022/12/15 05:36:45;;;;;;;20.55;14.00;;;-2.60;99.90;;;;;;5038800;28;20592;-75
2022/12/15 05:39:10;;;;;;;20.27;12.90;;;-2.70;99.90;;;;;;5051949;28;20203;-74
2022/12/15 05:41:36;;;;;;;24.23;16.33;;;-2.70;99.90;;;;;;5050702;28;20582;-75
2022/12/15 05:44:02;;;;;;;14.50;11.50;;;-2.70;99.90;;;;;;5051509;28;20503;-74
2022/12/15 05:46:27;;;;;;;25.40;13.90;;;-2.70;99.90;;;;;;5051795;28;20223;-76
2022/12/15 05:48:53;;;;;;;20.50;15.37;;;-2.80;99.90;;;;;;5051498;28;20169;-76
2022/12/15 05:51:30;;;;;;;19.35;13.40;;;-2.80;99.90;;;;;;5050660;28;20223;-78
2022/12/15 05:54:04;;;;;;;22.25;16.55;;;-2.70;99.90;;;;;;5033578;28;20173;-78
2022/12/15 05:56:51;;;;;;;18.60;14.10;;;-2.80;99.90;;;;;;5019523;28;20532;-75
2022/12/15 05:59:18;;;;;;;22.02;14.38;;;-2.80;99.90;;;;;;5032775;28;20185;-77
2022/12/15 06:01:44;;;;;;;19.33;11.40;;;-2.80;99.90;;;;;;5032701;28;20575;-75
2022/12/15 06:04:13;;;;;;;15.98;12.13;;;-2.80;99.90;;;;;;5033268;28;20193;-75
2022/12/15 06:06:40;;;;;;;23.17;16.10;;;-2.80;99.90;;;;;;5051131;28;20209;-76
2022/12/15 06:09:07;;;;;;;19.25;14.27;;;-2.80;99.90;;;;;;5050658;28;20176;-75
2022/12/15 06:11:33;;;;;;;19.42;12.18;;;-2.80;99.90;;;;;;5032498;28;20191;-75
2022/12/15 06:13:58;;;;;;;17.90;12.27;;;-2.80;99.90;;;;;;5021496;28;20748;-75
2022/12/15 06:16:26;;;;;;;15.30;9.47;;;-2.80;99.90;;;;;;5050926;28;20499;-75
2022/12/15 06:18:59;;;;;;;15.60;11.00;;;-2.80;99.90;;;;;;5033224;28;20169;-75
2022/12/15 06:21:27;;;;;;;19.13;11.27;;;-2.70;99.90;;;;;;5050004;28;20614;-75
2022/12/15 06:23:55;;;;;;;19.90;11.50;;;-2.70;99.90;;;;;;5031931;28;20173;-75
2022/12/15 06:26:24;;;;;;;16.85;11.38;;;-2.70;99.90;;;;;;5023915;28;20235;-75
2022/12/15 06:28:51;;;;;;;23.42;15.93;;;-2.80;99.90;;;;;;5050986;28;20177;-75
2022/12/15 06:31:21;;;;;;;16.77;11.65;;;-2.80;99.90;;;;;;5031792;28;20688;-75
2022/12/15 06:33:48;;;;;;;18.65;12.13;;;-2.80;99.90;;;;;;5028708;28;20260;-75
2022/12/15 06:36:15;;;;;;;17.20;11.38;;;-2.80;99.90;;;;;;5023281;28;20178;-75
2022/12/15 06:38:42;;;;;;;20.13;13.55;;;-2.80;99.90;;;;;;5032672;28;20177;-74
2022/12/15 06:41:10;;;;;;;20.08;12.45;;;-2.80;99.90;;;;;;5025944;28;20187;-75
2022/12/15 06:43:36;;;;;;;19.00;14.00;;;-2.80;99.90;;;;;;5023834;28;20197;-73
2022/12/15 06:46:02;;;;;;;22.40;14.30;;;-2.80;99.90;;;;;;5032591;28;20243;-74
2022/12/15 06:48:29;;;;;;;19.77;12.75;;;-2.80;99.90;;;;;;5032433;28;20177;-73
2022/12/15 06:50:55;;;;;;;23.98;15.00;;;-2.80;99.90;;;;;;5036654;28;20181;-74
2022/12/15 06:53:23;;;;;;;19.52;12.98;;;-2.80;99.90;;;;;;5031744;28;20177;-74
2022/12/15 06:55:49;;;;;;;20.70;12.45;;;-2.80;99.90;;;;;;5024006;28;20192;-74
2022/12/15 06:58:15;;;;;;;15.88;11.00;;;-2.80;99.90;;;;;;5024446;28;20176;-74
2022/12/15 07:00:43;;;;;;;22.25;14.15;;;-2.80;99.90;;;;;;5027531;28;20181;-75
2022/12/15 07:03:14;;;;;;;19.83;13.20;;;-2.70;99.90;;;;;;5036291;28;20975;-74
2022/12/15 07:05:39;;;;;;;19.95;13.07;;;-2.70;99.90;;;;;;5029771;28;20247;-74
2022/12/15 07:08:05;;;;;;;20.87;13.37;;;-2.60;99.90;;;;;;5012744;28;20630;-74
2022/12/15 07:10:31;;;;;;;24.77;15.10;;;-2.40;99.90;;;;;;5011820;28;20606;-74
2022/12/15 07:12:57;;;;;;;22.07;13.57;;;-2.30;99.90;;;;;;4995750;28;20240;-74
2022/12/15 07:15:23;;;;;;;23.03;16.20;;;-2.10;99.90;;;;;;5011808;28;20663;-74
2022/12/15 07:17:49;;;;;;;23.27;15.60;;;-2.10;99.90;;;;;;5028777;28;20610;-75
2022/12/15 07:20:16;;;;;;;26.90;16.25;;;-2.00;99.90;;;;;;4995150;28;20197;-74
2022/12/15 07:22:42;;;;;;;23.70;14.30;;;-2.00;99.90;;;;;;4995555;28;20267;-74
2022/12/15 07:25:08;;;;;;;23.90;14.27;;;-1.90;99.90;;;;;;5029656;28;20201;-74
2022/12/15 07:27:34;;;;;;;27.15;16.83;;;-1.90;99.90;;;;;;5030752;28;20646;-74
2022/12/15 07:30:00;;;;;;;22.17;14.63;;;-1.90;99.90;;;;;;5028048;28;20196;-74
2022/12/15 07:32:26;;;;;;;25.00;15.65;;;-1.80;99.90;;;;;;5035773;28;20330;-74
2022/12/15 07:34:52;;;;;;;24.93;16.27;;;-1.80;99.90;;;;;;5019803;28;20201;-73
2022/12/15 07:37:18;;;;;;;22.23;15.67;;;-1.90;99.90;;;;;;5030719;28;20175;-74
2022/12/15 07:39:43;;;;;;;21.57;16.13;;;-1.80;99.90;;;;;;5049106;28;20180;-74
2022/12/15 07:42:09;;;;;;;27.03;17.90;;;-1.90;99.90;;;;;;5049145;28;20619;-74
2022/12/15 07:44:35;;;;;;;31.87;18.50;;;-1.80;99.90;;;;;;5030642;28;20679;-73
2022/12/15 07:47:01;;;;;;;28.70;16.70;;;-1.90;99.90;;;;;;5031635;28;20181;-73
2022/12/15 07:49:26;;;;;;;22.80;16.10;;;-1.80;99.90;;;;;;5031007;28;20208;-73
2022/12/15 07:51:52;;;;;;;24.93;16.40;;;-1.80;99.90;;;;;;5030775;28;20172;-75
2022/12/15 07:54:18;;;;;;;28.80;18.50;;;-1.80;99.90;;;;;;5031203;28;20193;-72
2022/12/15 07:56:43;;;;;;;24.90;15.87;;;-1.70;99.90;;;;;;5031226;28;20180;-74
2022/12/15 07:59:09;;;;;;;21.53;15.37;;;-1.70;99.90;;;;;;5030929;28;20181;-73
2022/12/15 08:01:35;;;;;;;25.37;16.80;;;-1.60;99.90;;;;;;5039868;28;20200;-74
2022/12/15 08:04:01;;;;;;;23.77;16.97;;;-1.60;99.90;;;;;;5011442;28;20228;-73
2022/12/15 08:06:26;;;;;;;26.03;17.37;;;-1.50;99.90;;;;;;5031689;28;20164;-72
2022/12/15 08:08:53;;;;;;;25.05;17.23;;;-1.40;99.90;;;;;;5011661;28;21135;-73
2022/12/15 08:11:21;;;;;;;27.57;20.23;;;-1.40;99.90;;;;;;5010382;28;20223;-73
2022/12/15 08:13:47;;;;;;;31.27;18.20;;;-1.40;99.90;;;;;;5029080;28;20170;-72
2022/12/15 08:16:13;;;;;;;27.25;17.63;;;-1.40;99.90;;;;;;5010971;28;20169;-72
2022/12/15 08:18:39;;;;;;;31.90;22.15;;;-1.30;99.90;;;;;;5029047;28;20166;-73
2022/12/15 08:21:07;;;;;;;31.03;19.93;;;-1.50;99.90;;;;;;5028242;28;20165;-73
2022/12/15 08:23:34;;;;;;;27.65;20.23;;;-1.40;99.90;;;;;;5011287;28;20640;-73
2022/12/15 08:26:11;;;;;;;28.92;20.05;;;-1.40;99.90;;;;;;5027580;28;20237;-73
2022/12/15 08:28:39;;;;;;;28.10;19.67;;;-1.40;99.90;;;;;;5011265;28;20235;-73
2022/12/15 08:31:08;;;;;;;29.55;18.88;;;-1.30;99.90;;;;;;5028324;28;20188;-74
2022/12/15 08:33:34;;;;;;;26.23;16.48;;;-1.30;99.90;;;;;;5027573;28;20220;-72
2022/12/15 08:36:05;;;;;;;28.70;18.80;;;-1.30;99.90;;;;;;5028934;28;20205;-74
2022/12/15 08:38:32;;;;;;;28.98;19.65;;;-1.20;99.90;;;;;;5027495;28;20652;-73
2022/12/15 08:41:06;;;;;;;30.00;20.98;;;-1.20;99.90;;;;;;5010658;28;20605;-73
2022/12/15 08:43:32;;;;;;;29.92;19.83;;;-1.20;99.90;;;;;;5029599;28;20251;-73
2022/12/15 08:45:59;;;;;;;25.53;17.07;;;-1.30;99.90;;;;;;5028617;28;20658;-74
2022/12/15 08:48:25;;;;;;;22.63;16.15;;;-1.30;99.90;;;;;;5028699;28;20229;-72
2022/12/15 08:50:53;;;;;;;32.30;23.20;;;-1.30;99.90;;;;;;5010495;28;20173;-73
2022/12/15 08:53:19;;;;;;;29.30;19.95;;;-1.30;99.90;;;;;;5010666;28;20236;-72
2022/12/15 08:55:44;;;;;;;30.63;19.17;;;-1.30;99.90;;;;;;5026576;28;20830;-73
2022/12/15 08:58:10;;;;;;;33.03;22.60;;;-1.20;99.90;;;;;;5045073;28;20184;-73
2022/12/15 09:00:36;;;;;;;27.60;19.37;;;-1.20;99.90;;;;;;5021747;28;20188;-74
2022/12/15 09:03:02;;;;;;;23.57;18.13;;;-1.20;99.90;;;;;;5049289;28;20196;-73
2022/12/15 09:05:27;;;;;;;28.97;19.07;;;-1.20;99.90;;;;;;5052108;28;20188;-73
2022/12/15 09:07:58;;;;;;;26.03;17.60;;;-1.20;99.90;;;;;;5034620;28;20576;-74
2022/12/15 09:10:23;;;;;;;28.08;17.55;;;-1.10;99.90;;;;;;5051730;28;20180;-73
2022/12/15 09:12:50;;;;;;;33.57;20.97;;;-1.10;99.90;;;;;;5017579;28;20629;-73
2022/12/15 09:15:16;;;;;;;39.33;23.05;;;-1.00;99.90;;;;;;5034000;28;20630;-74
2022/12/15 09:17:42;;;;;;;35.40;24.05;;;-1.00;99.90;;;;;;5034073;28;20177;-75
2022/12/15 09:20:08;;;;;;;30.15;20.10;;;-1.00;99.90;;;;;;5021983;28;20185;-75
2022/12/15 09:22:35;;;;;;;31.60;20.77;;;-1.00;99.90;;;;;;5033650;28;20201;-75
2022/12/15 09:25:03;;;;;;;26.30;17.98;;;-1.00;99.90;;;;;;5051979;28;20607;-75
2022/12/15 09:27:29;;;;;;;28.08;17.63;;;-1.00;99.90;;;;;;5033816;28;20173;-75
2022/12/15 09:29:56;;;;;;;28.67;17.83;;;-0.90;99.90;;;;;;5051444;28;20223;-75
2022/12/15 09:32:23;;;;;;;29.58;21.17;;;-0.80;99.90;;;;;;5033523;28;20176;-75
2022/12/15 09:34:52;;;;;;;34.50;22.20;;;-0.80;99.90;;;;;;5051728;28;20268;-75
2022/12/15 09:37:19;;;;;;;30.33;22.48;;;-0.80;99.90;;;;;;5017372;28;20213;-75
2022/12/15 09:39:45;;;;;;;37.58;26.63;;;-0.80;99.90;;;;;;5049980;28;20211;-74
2022/12/15 09:42:28;;;;;;;29.92;20.55;;;-0.90;99.90;;;;;;5051638;28;20197;-74
2022/12/15 09:45:25;;;;;;;39.47;23.00;;;-0.90;99.90;;;;;;5021363;28;20532;-74
2022/12/15 09:48:01;;;;;;;34.30;20.40;;;-0.90;99.90;;;;;;5010239;28;20333;-75
2022/12/15 09:50:38;;;;;;;32.85;21.00;;;-0.80;99.90;;;;;;5011288;28;20265;-74
2022/12/15 09:53:09;;;;;;;26.08;18.88;;;-0.80;99.90;;;;;;4994073;28;20265;-74
2022/12/15 09:55:35;;;;;;;24.02;17.73;;;-0.80;99.90;;;;;;5010256;28;20194;-74
2022/12/15 09:58:07;;;;;;;35.43;26.20;;;-0.80;99.90;;;;;;4996471;28;20631;-74
2022/12/15 10:00:39;;;;;;;35.28;21.35;;;-0.80;99.90;;;;;;5004752;28;20181;-74
2022/12/15 10:03:36;;;;;;;30.73;22.95;;;-0.80;99.90;;;;;;5013330;28;20255;-74
2022/12/15 10:06:17;;;;;;;33.45;23.60;;;-0.80;99.90;;;;;;5013379;28;20197;-74
2022/12/15 10:08:51;;;;;;;34.20;23.55;;;-0.80;99.90;;;;;;5030693;28;20169;-74
2022/12/15 10:11:25;;;;;;;32.33;21.80;;;-0.90;99.90;;;;;;5012953;28;20544;-74
2022/12/15 10:14:08;;;;;;;29.42;22.05;;;-0.80;99.90;;;;;;5039584;28;20537;-75
2022/12/15 10:16:49;;;;;;;31.15;22.00;;;-0.80;99.90;;;;;;4993985;28;20225;-75
2022/12/15 10:19:17;;;;;;;32.47;21.63;;;-0.80;99.90;;;;;;4993752;28;20210;-74
2022/12/15 10:21:43;;;;;;;27.00;19.70;;;-0.80;99.90;;;;;;5010102;28;20206;-74
2022/12/15 10:24:21;;;;;;;32.20;22.80;;;-0.70;99.90;;;;;;5011068;28;20217;-74
2022/12/15 10:27:12;;;;;;;26.85;20.48;;;-0.70;99.90;;;;;;5010806;28;20509;-75
2022/12/15 10:30:01;;;;;;;29.23;19.25;;;-0.60;99.90;;;;;;5010774;28;20580;-75
2022/12/15 10:32:46;;;;;;;27.13;19.38;;;-0.70;99.90;;;;;;4992312;28;20177;-75
2022/12/15 10:35:22;;;;;;;32.33;20.63;;;-0.60;99.90;;;;;;5028139;28;20197;-74
2022/12/15 10:37:48;;;;;;;24.33;17.52;;;-0.60;99.90;;;;;;5028834;28;20680;-75
2022/12/15 10:40:19;;;;;;;25.47;18.17;;;-0.50;99.90;;;;;;5028506;28;20178;-75
2022/12/15 10:42:48;;;;;;;27.95;17.83;;;-0.50;99.90;;;;;;5033887;28;20662;-75
2022/12/15 10:45:35;;;;;;;26.60;16.85;;;-0.30;99.90;;;;;;5030889;28;20190;-76
2022/12/15 10:48:02;;;;;;;28.05;20.35;;;-0.20;99.90;;;;;;5027529;28;20316;-75
2022/12/15 10:50:28;;;;;;;24.83;16.10;;;-0.10;99.90;;;;;;5024019;28;20758;-74
2022/12/15 10:52:54;;;;;;;29.52;19.15;;;-0.10;99.90;;;;;;5011819;28;20216;-74
2022/12/15 10:55:40;;;;;;;26.10;20.00;;;0.00;99.90;;;;;;5023029;28;20676;-74
2022/12/15 10:58:19;;;;;;;22.08;17.52;;;-0.10;99.90;;;;;;5020532;28;20178;-74
2022/12/15 11:00:46;;;;;;;27.65;19.30;;;0.00;99.90;;;;;;5019835;28;20181;-74
2022/12/15 11:03:23;;;;;;;25.65;19.98;;;0.00;99.90;;;;;;5018733;28;20198;-74
2022/12/15 11:05:52;;;;;;;28.85;21.45;;;0.00;99.90;;;;;;5001801;28;20197;-74
2022/12/15 11:08:18;;;;;;;28.40;20.13;;;0.00;99.90;;;;;;5000834;28;20174;-74
2022/12/15 11:13:41;;;;;;;27.30;18.05;;;0.10;99.90;;;;;;5020510;28;20522;-74
2022/12/15 11:16:16;;;;;;;28.10;19.67;;;0.30;99.90;;;;;;5018774;28;20281;-74
2022/12/15 11:18:52;;;;;;;28.77;19.50;;;0.30;99.90;;;;;;5001159;28;20209;-75
2022/12/15 11:21:47;;;;;;;30.85;19.85;;;0.40;99.90;;;;;;5025891;28;20179;-75
2022/12/15 11:24:15;;;;;;;26.70;18.38;;;0.50;99.90;;;;;;5022224;28;20235;-74
2022/12/15 11:27:14;;;;;;;27.13;19.55;;;0.50;99.90;;;;;;5004958;28;20192;-75
2022/12/15 11:29:56;;;;;;;26.58;19.65;;;0.60;99.90;;;;;;5005928;28;20182;-75
2022/12/15 11:32:32;;;;;;;28.95;21.50;;;0.60;99.90;;;;;;5020113;28;20170;-75
2022/12/15 11:34:58;;;;;;;37.13;27.15;;;0.60;99.90;;;;;;5023643;28;20866;-75
2022/12/15 11:37:44;;;;;;;34.67;30.80;;;0.50;99.90;;;;;;5031056;28;20747;-74
2022/12/15 11:40:16;;;;;;;31.88;24.40;;;0.30;99.90;;;;;;5034443;28;20518;-75
2022/12/15 11:42:48;;;;;;;32.50;23.45;;;0.30;99.90;;;;;;5012977;28;20263;-74
2022/12/15 11:45:23;;;;;;;27.80;21.10;;;0.30;99.90;;;;;;5010344;28;20248;-74
2022/12/15 11:48:00;;;;;;;31.27;22.33;;;0.30;99.90;;;;;;5012263;28;20168;-74
2022/12/15 11:50:36;;;;;;;29.50;20.90;;;0.40;99.90;;;;;;5034988;28;20260;-74
2022/12/15 11:53:17;;;;;;;28.30;19.48;;;0.30;99.90;;;;;;5037117;28;20180;-74
2022/12/15 11:55:52;;;;;;;27.92;20.08;;;0.40;99.90;;;;;;5042346;28;20196;-74
2022/12/15 11:58:26;;;;;;;23.45;18.85;;;0.40;99.90;;;;;;5024816;28;20263;-74
2022/12/15 12:01:17;;;;;;;23.75;18.35;;;0.40;99.90;;;;;;5038738;28;20181;-75
2022/12/15 12:03:59;;;;;;;24.48;17.73;;;0.40;99.90;;;;;;5010922;28;20206;-76
2022/12/15 12:06:39;;;;;;;27.75;19.75;;;0.50;99.90;;;;;;5013826;28;20185;-76
2022/12/15 12:09:17;;;;;;;21.92;16.98;;;0.40;99.90;;;;;;5031579;28;20181;-76
2022/12/15 12:12:08;;;;;;;24.90;16.95;;;0.50;99.90;;;;;;5011660;28;20316;-76
2022/12/15 12:14:45;;;;;;;25.95;19.02;;;0.60;99.90;;;;;;5012371;28;20538;-76
2022/12/15 12:17:38;;;;;;;30.85;21.02;;;0.60;99.90;;;;;;5012315;28;20633;-76
2022/12/15 12:20:12;;;;;;;22.90;16.90;;;0.60;99.90;;;;;;5011814;28;20169;-76
2022/12/15 12:22:54;;;;;;;20.77;17.10;;;0.60;99.90;;;;;;5028909;28;20204;-76
2022/12/15 12:25:21;;;;;;;24.77;15.65;;;0.60;99.90;;;;;;5024372;28;20203;-77
2022/12/15 12:28:11;;;;;;;30.63;20.95;;;0.70;99.90;;;;;;5010394;28;20208;-77
2022/12/15 12:30:45;;;;;;;28.80;18.10;;;0.70;99.90;;;;;;5027498;28;20177;-77
2022/12/15 12:33:38;;;;;;;26.52;17.50;;;0.60;99.90;;;;;;5017650;28;20272;-77
2022/12/15 12:36:15;;;;;;;28.60;19.60;;;0.60;99.90;;;;;;5028032;28;20196;-77
2022/12/15 12:38:49;;;;;;;27.10;19.02;;;0.60;99.90;;;;;;5054998;28;20173;-76
2022/12/15 12:41:49;;;;;;;34.80;23.80;;;0.50;99.90;;;;;;5036718;28;20173;-76
2022/12/15 12:44:38;;;;;;;30.50;20.42;;;0.40;99.90;;;;;;5025003;28;20264;-75
2022/12/15 12:47:28;;;;;;;33.70;22.65;;;0.30;99.90;;;;;;5025234;28;20173;-75
2022/12/15 12:50:01;;;;;;;26.50;18.20;;;0.10;99.90;;;;;;5050394;28;20514;-76
2022/12/15 12:52:35;;;;;;;24.80;18.65;;;0.10;99.90;;;;;;5054250;28;20219;-75
2022/12/15 12:55:20;;;;;;;24.52;17.30;;;0.10;99.90;;;;;;5054699;28;20199;-75
2022/12/15 12:57:46;;;;;;;28.05;18.13;;;0.10;99.90;;;;;;5053951;28;20558;-75
2022/12/15 13:00:24;;;;;;;25.95;18.35;;;0.10;99.90;;;;;;5036055;28;20567;-74
2022/12/15 13:03:12;;;;;;;26.55;17.20;;;0.20;99.90;;;;;;5003044;28;20201;-74
2022/12/15 13:05:40;;;;;;;25.50;16.95;;;0.20;99.90;;;;;;5019321;28;20201;-74
2022/12/15 13:08:05;;;;;;;26.45;16.83;;;0.30;99.90;;;;;;5033546;28;20616;-75
2022/12/15 13:10:37;;;;;;;26.67;17.33;;;0.40;99.90;;;;;;5033697;28;20177;-74
2022/12/15 13:13:30;;;;;;;26.90;17.92;;;0.40;99.90;;;;;;5012715;28;20569;-75
2022/12/15 13:16:20;;;;;;;24.33;16.40;;;0.50;99.90;;;;;;5017143;28;20190;-75
2022/12/15 13:19:05;;;;;;;25.50;19.40;;;0.50;99.90;;;;;;5016121;28;20308;-75
2022/12/15 13:21:40;;;;;;;29.80;21.00;;;0.50;99.90;;;;;;5015185;28;20535;-75
2022/12/15 13:24:36;;;;;;;31.33;18.65;;;0.50;99.90;;;;;;4999529;28;20212;-74
2022/12/15 13:27:08;;;;;;;29.83;18.33;;;0.50;99.90;;;;;;5016031;28;20704;-74
2022/12/15 13:29:35;;;;;;;23.23;16.65;;;0.50;99.90;;;;;;5033299;28;20170;-75
2022/12/15 13:32:02;;;;;;;21.10;14.70;;;0.50;99.90;;;;;;5015548;28;20177;-74
2022/12/15 13:34:37;;;;;;;29.75;20.45;;;0.50;99.90;;;;;;5033591;28;20194;-74
2022/12/15 13:37:25;;;;;;;26.50;17.02;;;0.50;99.90;;;;;;5015405;28;20177;-75
2022/12/15 13:39:54;;;;;;;23.17;15.77;;;0.50;99.90;;;;;;5015903;28;20182;-74
2022/12/15 13:42:25;;;;;;;23.70;16.95;;;0.60;99.90;;;;;;5015605;28;20240;-74
2022/12/15 13:44:56;;;;;;;28.65;18.75;;;0.60;99.90;;;;;;5015677;28;20268;-74
2022/12/15 13:47:22;;;;;;;29.63;19.13;;;0.60;99.90;;;;;;5015499;28;20180;-76
2022/12/15 13:49:55;;;;;;;23.80;16.75;;;0.60;99.90;;;;;;5032066;28;20228;-75
2022/12/15 13:52:31;;;;;;;22.42;15.32;;;0.60;99.90;;;;;;5042547;28;20244;-75
2022/12/15 13:55:06;;;;;;;23.42;15.77;;;0.70;99.90;;;;;;5031444;28;20599;-75
2022/12/15 13:57:38;;;;;;;21.33;16.25;;;0.70;99.90;;;;;;5034225;28;20211;-75
2022/12/15 14:00:17;;;;;;;22.25;16.42;;;0.80;99.90;;;;;;5032756;28;20180;-75
2022/12/15 14:02:43;;;;;;;23.70;16.63;;;0.80;99.90;;;;;;5047031;28;20575;-74
2022/12/15 14:05:17;;;;;;;21.08;14.65;;;0.80;99.90;;;;;;5022308;28;20228;-75
2022/12/15 14:07:48;;;;;;;23.27;17.30;;;0.80;99.90;;;;;;5033388;28;20193;-74
2022/12/15 14:10:24;;;;;;;21.73;15.82;;;0.90;99.90;;;;;;4997484;28;20188;-75
2022/12/15 14:12:51;;;;;;;21.38;15.32;;;0.90;99.90;;;;;;5010416;28;20181;-75
2022/12/15 14:15:21;;;;;;;19.85;15.20;;;0.90;99.90;;;;;;5017229;28;20215;-75
2022/12/15 14:17:53;;;;;;;16.60;13.68;;;0.90;99.90;;;;;;5057515;28;20177;-74
2022/12/15 14:20:26;;;;;;;22.90;16.50;;;0.90;99.90;;;;;;5051815;28;20180;-75
2022/12/15 14:22:53;;;;;;;21.33;14.63;;;0.90;99.90;;;;;;5034013;28;20212;-75
2022/12/15 14:25:25;;;;;;;23.17;17.15;;;0.90;99.90;;;;;;5052233;28;20209;-75
2022/12/15 14:27:51;;;;;;;23.85;17.10;;;0.90;99.90;;;;;;5042462;28;20236;-75
2022/12/15 14:30:31;;;;;;;19.43;14.03;;;0.90;99.90;;;;;;5014271;28;20568;-75
2022/12/15 14:33:12;;;;;;;24.70;17.58;;;0.90;99.90;;;;;;5014297;28;20591;-75
2022/12/15 14:35:50;;;;;;;23.98;17.20;;;0.90;99.90;;;;;;4997845;28;20197;-75
2022/12/15 14:38:22;;;;;;;21.65;15.55;;;0.80;99.90;;;;;;5014202;28;20174;-76
2022/12/15 14:40:50;;;;;;;24.45;16.17;;;0.80;99.90;;;;;;5013462;28;20174;-76
2022/12/15 14:43:37;;;;;;;23.15;17.10;;;0.80;99.90;;;;;;4998086;28;20201;-76
2022/12/15 14:46:09;;;;;;;23.08;17.80;;;0.80;99.90;;;;;;5032107;28;20255;-75
2022/12/15 14:48:43;;;;;;;28.77;17.40;;;0.80;99.90;;;;;;5014091;28;20174;-75
2022/12/15 14:51:13;;;;;;;25.52;17.20;;;0.80;99.90;;;;;;4997503;28;20684;-76
2022/12/15 14:53:40;;;;;;;22.52;16.08;;;0.80;99.90;;;;;;5018560;28;20234;-75
2022/12/15 14:56:19;;;;;;;31.13;19.98;;;0.70;99.90;;;;;;5028714;28;20193;-75
2022/12/15 14:58:47;;;;;;;26.27;20.02;;;0.70;99.90;;;;;;5051710;28;20184;-76
2022/12/15 15:01:25;;;;;;;25.73;18.85;;;0.60;99.90;;;;;;5034596;28;20211;-77
2022/12/15 15:03:57;;;;;;;22.25;17.08;;;0.60;99.90;;;;;;5052332;28;20193;-77
2022/12/15 15:06:30;;;;;;;19.35;15.13;;;0.50;99.90;;;;;;5052060;28;20625;-76
2022/12/15 15:09:01;;;;;;;22.33;15.55;;;0.50;99.90;;;;;;5044385;28;20180;-76
2022/12/15 15:11:34;;;;;;;18.17;13.75;;;0.50;99.90;;;;;;5005328;28;20204;-74
2022/12/15 15:14:07;;;;;;;19.17;14.48;;;0.50;99.90;;;;;;5021207;28;20184;-74
2022/12/15 15:16:33;;;;;;;22.02;16.58;;;0.50;99.90;;;;;;4996338;28;20181;-76
2022/12/15 15:19:01;;;;;;;21.90;15.57;;;0.50;99.90;;;;;;5013884;28;20185;-74